sensor_id;sensor_type;location;lat;lon;timestamp;pressure;altitude;pressure_sealevel;temperature;humidity
58243;BME280;50118;53.232;8.252;2023-10-08T00:00:25;102089.22;;;10.57;100.00
58243;BME280;50118;53.232;8.252;2023-10-08T00:03:10;102093.59;;;10.58;100.00
58243;BME280;50118;53.232;8.252;2023-10-08T00:06:02;102099.34;;;10.64;100.00
58243;BME280;50118;53.232;8.252;2023-10-08T00:11:25;102108.16;;;10.65;100.00
58243;BME280;50118;53.232;8.252;2023-10-08T00:14:01;102102.63;;;10.68;100.00
58243;BME280;50118;53.232;8.252;2023-10-08T00:16:26;102109.09;;;10.77;100.00
58243;BME280;50118;53.232;8.252;2023-10-08T00:18:53;102127.63;;;10.78;100.00
58243;BME280;50118;53.232;8.252;2023-10-08T00:21:23;102128.59;;;10.77;100.00
58243;BME280;50118;53.232;8.252;2023-10-08T00:23:53;102139.97;;;10.79;100.00
58243;BME280;50118;53.232;8.252;2023-10-08T00:26:25;102139.97;;;10.79;100.00
58243;BME280;50118;53.232;8.252;2023-10-08T00:29:00;102127.19;;;10.84;100.00
58243;BME280;50118;53.232;8.252;2023-10-08T00:31:28;102120.66;;;10.89;100.00
58243;BME280;50118;53.232;8.252;2023-10-08T00:34:02;102132.06;;;10.91;100.00
58243;BME280;50118;53.232;8.252;2023-10-08T00:36:30;102130.13;;;10.93;100.00
58243;BME280;50118;53.232;8.252;2023-10-08T00:38:56;102130.75;;;10.96;100.00
58243;BME280;50118;53.232;8.252;2023-10-08T00:41:26;102138.00;;;10.94;100.00
58243;BME280;50118;53.232;8.252;2023-10-08T00:43:57;102153.59;;;10.88;100.00
58243;BME280;50118;53.232;8.252;2023-10-08T00:46:25;102152.75;;;10.87;100.00
58243;BME280;50118;53.232;8.252;2023-10-08T00:48:59;102153.59;;;10.88;100.00
58243;BME280;50118;53.232;8.252;2023-10-08T00:51:46;102155.97;;;10.79;100.00
58243;BME280;50118;53.232;8.252;2023-10-08T00:54:24;102154.69;;;10.85;100.00
58243;BME280;50118;53.232;8.252;2023-10-08T00:56:53;102152.75;;;10.87;100.00
58243;BME280;50118;53.232;8.252;2023-10-08T00:59:23;102157.13;;;10.88;100.00
58243;BME280;50118;53.232;8.252;2023-10-08T01:01:51;102160.44;;;10.92;100.00
58243;BME280;50118;53.232;8.252;2023-10-08T01:04:18;102160.22;;;10.95;100.00
58243;BME280;50118;53.232;8.252;2023-10-08T01:06:49;102152.94;;;10.97;100.00
58243;BME280;50118;53.232;8.252;2023-10-08T01:09:19;102145.59;;;10.88;100.00
58243;BME280;50118;53.232;8.252;2023-10-08T01:12:15;102142.81;;;10.89;100.00
58243;BME280;50118;53.232;8.252;2023-10-08T01:14:45;102137.16;;;10.94;100.00
58243;BME280;50118;53.232;8.252;2023-10-08T01:17:15;102144.22;;;10.95;100.00
58243;BME280;50118;53.232;8.252;2023-10-08T01:19:51;102142.50;;;10.94;100.00
58243;BME280;50118;53.232;8.252;2023-10-08T01:22:21;102152.72;;;11.00;100.00
58243;BME280;50118;53.232;8.252;2023-10-08T01:24:50;102153.56;;;11.00;100.00
58243;BME280;50118;53.232;8.252;2023-10-08T01:27:17;102156.13;;;11.02;100.00
58243;BME280;50118;53.232;8.252;2023-10-08T01:29:53;102131.53;;;11.10;100.00
58243;BME280;50118;53.232;8.252;2023-10-08T01:32:19;102143.06;;;11.10;100.00
58243;BME280;50118;53.232;8.252;2023-10-08T01:34:46;102133.34;;;11.09;100.00
58243;BME280;50118;53.232;8.252;2023-10-08T01:37:15;102150.56;;;11.05;100.00
58243;BME280;50118;53.232;8.252;2023-10-08T01:39:47;102154.91;;;11.06;100.00
58243;BME280;50118;53.232;8.252;2023-10-08T01:42:15;102157.81;;;11.03;100.00
58243;BME280;50118;53.232;8.252;2023-10-08T01:44:47;102152.97;;;11.08;100.00
58243;BME280;50118;53.232;8.252;2023-10-08T01:47:14;102152.25;;;11.06;100.00
58243;BME280;50118;53.232;8.252;2023-10-08T01:49:42;102150.56;;;11.05;100.00
58243;BME280;50118;53.232;8.252;2023-10-08T01:52:09;102139.66;;;11.08;100.00
58243;BME280;50118;53.232;8.252;2023-10-08T01:54:42;102146.47;;;11.12;100.00
58243;BME280;50118;53.232;8.252;2023-10-08T01:57:09;102132.44;;;11.21;100.00
58243;BME280;50118;53.232;8.252;2023-10-08T01:59:35;102147.69;;;11.19;100.00
58243;BME280;50118;53.232;8.252;2023-10-08T02:02:03;102138.97;;;11.17;100.00
58243;BME280;50118;53.232;8.252;2023-10-08T02:04:31;102153.75;;;11.10;100.00
58243;BME280;50118;53.232;8.252;2023-10-08T02:06:59;102143.19;;;11.09;100.00
58243;BME280;50118;53.232;8.252;2023-10-08T02:09:24;102150.97;;;11.12;100.00
58243;BME280;50118;53.232;8.252;2023-10-08T02:11:52;102151.81;;;11.12;100.00
58243;BME280;50118;53.232;8.252;2023-10-08T02:14:22;102155.63;;;11.08;100.00
58243;BME280;50118;53.232;8.252;2023-10-08T02:16:51;102169.97;;;11.07;100.00
58243;BME280;50118;53.232;8.252;2023-10-08T02:19:21;102183.41;;;11.06;100.00
58243;BME280;50118;53.232;8.252;2023-10-08T02:21:55;102175.50;;;11.04;100.00
58243;BME280;50118;53.232;8.252;2023-10-08T02:24:22;102151.50;;;11.04;100.00
58243;BME280;50118;53.232;8.252;2023-10-08T02:26:51;102157.56;;;11.06;100.00
58243;BME280;50118;53.232;8.252;2023-10-08T02:29:17;102162.91;;;11.06;100.00
58243;BME280;50118;53.232;8.252;2023-10-08T02:31:42;102161.97;;;11.07;100.00
58243;BME280;50118;53.232;8.252;2023-10-08T02:34:09;102159.63;;;11.02;100.00
58243;BME280;50118;53.232;8.252;2023-10-08T02:36:38;102173.28;;;10.98;100.00
58243;BME280;50118;53.232;8.252;2023-10-08T02:39:06;102187.25;;;11.01;100.00
58243;BME280;50118;53.232;8.252;2023-10-08T02:41:49;102201.66;;;10.99;100.00
58243;BME280;50118;53.232;8.252;2023-10-08T02:44:16;102195.25;;;11.01;100.00
58243;BME280;50118;53.232;8.252;2023-10-08T02:46:46;102187.03;;;11.05;100.00
58243;BME280;50118;53.232;8.252;2023-10-08T02:49:15;102194.50;;;10.99;100.00
58243;BME280;50118;53.232;8.252;2023-10-08T02:51:54;102205.63;;;10.93;100.00
58243;BME280;50118;53.232;8.252;2023-10-08T02:54:21;102201.78;;;10.97;100.00
58243;BME280;50118;53.232;8.252;2023-10-08T02:56:50;102210.28;;;11.02;100.00
58243;BME280;50118;53.232;8.252;2023-10-08T02:59:18;102215.22;;;10.96;100.00
58243;BME280;50118;53.232;8.252;2023-10-08T03:01:48;102213.75;;;10.92;100.00
58243;BME280;50118;53.232;8.252;2023-10-08T03:04:25;102209.78;;;10.97;100.00
58243;BME280;50118;53.232;8.252;2023-10-08T03:06:53;102206.03;;;11.00;100.00
58243;BME280;50118;53.232;8.252;2023-10-08T03:09:20;102209.22;;;11.05;100.00
58243;BME280;50118;53.232;8.252;2023-10-08T03:11:57;102215.00;;;10.99;100.00
58243;BME280;50118;53.232;8.252;2023-10-08T03:14:33;102213.16;;;10.99;100.00
58243;BME280;50118;53.232;8.252;2023-10-08T03:17:09;102216.47;;;11.03;100.00
58243;BME280;50118;53.232;8.252;2023-10-08T03:19:34;102224.56;;;11.01;100.00
58243;BME280;50118;53.232;8.252;2023-10-08T03:22:00;102232.72;;;11.00;100.00
58243;BME280;50118;53.232;8.252;2023-10-08T03:24:30;102236.09;;;11.02;100.00
58243;BME280;50118;53.232;8.252;2023-10-08T03:27:03;102257.44;;;11.02;100.00
58243;BME280;50118;53.232;8.252;2023-10-08T03:29:35;102263.00;;;10.99;100.00
58243;BME280;50118;53.232;8.252;2023-10-08T03:32:11;102256.34;;;11.05;100.00
58243;BME280;50118;53.232;8.252;2023-10-08T03:34:49;102249.34;;;11.03;100.00
58243;BME280;50118;53.232;8.252;2023-10-08T03:37:21;102265.88;;;10.96;100.00
58243;BME280;50118;53.232;8.252;2023-10-08T03:39:55;102269.84;;;10.90;100.00
58243;BME280;50118;53.232;8.252;2023-10-08T03:42:32;102267.50;;;10.86;100.00
58243;BME280;50118;53.232;8.252;2023-10-08T03:45:06;102261.09;;;10.88;100.00
58243;BME280;50118;53.232;8.252;2023-10-08T03:47:40;102251.91;;;10.92;100.00
58243;BME280;50118;53.232;8.252;2023-10-08T03:50:11;102242.34;;;10.90;100.00
58243;BME280;50118;53.232;8.252;2023-10-08T03:52:41;102260.22;;;10.88;100.00
58243;BME280;50118;53.232;8.252;2023-10-08T03:55:08;102267.69;;;10.82;100.00
58243;BME280;50118;53.232;8.252;2023-10-08T03:57:47;102274.13;;;10.80;100.00
58243;BME280;50118;53.232;8.252;2023-10-08T04:00:22;102274.22;;;10.78;100.00
58243;BME280;50118;53.232;8.252;2023-10-08T04:02:54;102284.69;;;10.81;100.00
58243;BME280;50118;53.232;8.252;2023-10-08T04:05:23;102289.25;;;10.79;100.00
58243;BME280;50118;53.232;8.252;2023-10-08T04:07:53;102282.75;;;10.83;100.00
58243;BME280;50118;53.232;8.252;2023-10-08T04:10:29;102290.97;;;10.80;100.00
58243;BME280;50118;53.232;8.252;2023-10-08T04:13:03;102290.31;;;10.77;100.00
58243;BME280;50118;53.232;8.252;2023-10-08T04:15:34;102290.97;;;10.80;100.00
58243;BME280;50118;53.232;8.252;2023-10-08T04:17:59;102291.69;;;10.82;100.00
58243;BME280;50118;53.232;8.252;2023-10-08T04:20:28;102296.59;;;10.89;100.00
58243;BME280;50118;53.232;8.252;2023-10-08T04:23:02;102275.69;;;10.82;100.00
58243;BME280;50118;53.232;8.252;2023-10-08T04:25:30;102278.47;;;10.81;100.00
58243;BME280;50118;53.232;8.252;2023-10-08T04:28:00;102291.81;;;10.81;100.00
58243;BME280;50118;53.232;8.252;2023-10-08T04:30:32;102301.81;;;10.77;100.00
58243;BME280;50118;53.232;8.252;2023-10-08T04:33:05;102304.50;;;10.77;100.00
58243;BME280;50118;53.232;8.252;2023-10-08T04:35:39;102306.94;;;10.80;100.00
58243;BME280;50118;53.232;8.252;2023-10-08T04:38:20;102299.91;;;10.79;100.00
58243;BME280;50118;53.232;8.252;2023-10-08T04:40:50;102310.81;;;10.76;100.00
58243;BME280;50118;53.232;8.252;2023-10-08T04:43:20;102312.69;;;10.74;100.00
58243;BME280;50118;53.232;8.252;2023-10-08T04:45:51;102327.22;;;10.70;100.00
58243;BME280;50118;53.232;8.252;2023-10-08T04:48:16;102325.50;;;10.69;100.00
58243;BME280;50118;53.232;8.252;2023-10-08T04:50:47;102338.28;;;10.64;100.00
58243;BME280;50118;53.232;8.252;2023-10-08T04:53:16;102332.44;;;10.59;100.00
58243;BME280;50118;53.232;8.252;2023-10-08T04:55:42;102339.47;;;10.60;100.00
58243;BME280;50118;53.232;8.252;2023-10-08T04:58:14;102349.81;;;10.64;100.00
58243;BME280;50118;53.232;8.252;2023-10-08T05:00:46;102356.41;;;10.59;100.00
58243;BME280;50118;53.232;8.252;2023-10-08T05:03:25;102356.19;;;10.62;100.00
58243;BME280;50118;53.232;8.252;2023-10-08T05:05:57;102352.59;;;10.63;100.00
58243;BME280;50118;53.232;8.252;2023-10-08T05:08:49;102352.81;;;10.60;100.00
58243;BME280;50118;53.232;8.252;2023-10-08T05:11:23;102340.56;;;10.57;100.00
58243;BME280;50118;53.232;8.252;2023-10-08T05:14:16;102342.66;;;10.65;100.00
58243;BME280;50118;53.232;8.252;2023-10-08T05:16:55;102339.91;;;10.67;100.00
58243;BME280;50118;53.232;8.252;2023-10-08T05:19:39;102338.53;;;10.61;100.00
58243;BME280;50118;53.232;8.252;2023-10-08T05:22:21;102324.66;;;10.69;100.00
58243;BME280;50118;53.232;8.252;2023-10-08T05:24:55;102318.69;;;10.65;100.00
58243;BME280;50118;53.232;8.252;2023-10-08T05:27:41;102321.47;;;10.63;100.00
58243;BME280;50118;53.232;8.252;2023-10-08T05:30:17;102341.41;;;10.58;100.00
58243;BME280;50118;53.232;8.252;2023-10-08T05:32:53;102337.88;;;10.57;100.00
58243;BME280;50118;53.232;8.252;2023-10-08T05:35:33;102339.47;;;10.47;100.00
58243;BME280;50118;53.232;8.252;2023-10-08T05:38:11;102342.34;;;10.44;100.00
58243;BME280;50118;53.232;8.252;2023-10-08T05:40:56;102338.63;;;10.46;100.00
58243;BME280;50118;53.232;8.252;2023-10-08T05:43:22;102336.78;;;10.47;100.00
58243;BME280;50118;53.232;8.252;2023-10-08T05:46:13;102350.09;;;10.47;100.00
58243;BME280;50118;53.232;8.252;2023-10-08T05:48:44;102357.47;;;10.43;100.00
58243;BME280;50118;53.232;8.252;2023-10-08T05:51:27;102357.47;;;10.43;100.00
58243;BME280;50118;53.232;8.252;2023-10-08T05:54:18;102369.41;;;10.38;100.00
58243;BME280;50118;53.232;8.252;2023-10-08T05:57:04;102363.22;;;10.37;100.00
58243;BME280;50118;53.232;8.252;2023-10-08T05:59:50;102364.72;;;10.41;100.00
58243;BME280;50118;53.232;8.252;2023-10-08T06:02:29;102381.34;;;10.45;100.00
58243;BME280;50118;53.232;8.252;2023-10-08T06:05:08;102381.97;;;10.49;100.00
58243;BME280;50118;53.232;8.252;2023-10-08T06:07:52;102366.88;;;10.49;100.00
58243;BME280;50118;53.232;8.252;2023-10-08T06:10:19;102376.03;;;10.58;100.00
58243;BME280;50118;53.232;8.252;2023-10-08T06:12:53;102371.25;;;10.63;100.00
58243;BME280;50118;53.232;8.252;2023-10-08T06:15:27;102374.84;;;10.62;100.00
58243;BME280;50118;53.232;8.252;2023-10-08T06:18:10;102370.28;;;10.64;100.00
58243;BME280;50118;53.232;8.252;2023-10-08T06:20:36;102371.47;;;10.73;100.00
58243;BME280;50118;53.232;8.252;2023-10-08T06:23:04;102373.47;;;10.69;100.00
58243;BME280;50118;53.232;8.252;2023-10-08T06:25:33;102368.81;;;10.73;100.00
58243;BME280;50118;53.232;8.252;2023-10-08T06:28:11;102363.88;;;10.79;100.00
58243;BME280;50118;53.232;8.252;2023-10-08T06:30:36;102376.03;;;10.83;100.00
58243;BME280;50118;53.232;8.252;2023-10-08T06:33:09;102373.59;;;10.80;100.00
58243;BME280;50118;53.232;8.252;2023-10-08T06:35:35;102387.88;;;10.92;100.00
58243;BME280;50118;53.232;8.252;2023-10-08T06:38:02;102384.16;;;10.95;100.00
58243;BME280;50118;53.232;8.252;2023-10-08T06:40:35;102396.97;;;10.90;100.00
58243;BME280;50118;53.232;8.252;2023-10-08T06:43:07;102402.06;;;10.93;100.00
58243;BME280;50118;53.232;8.252;2023-10-08T06:45:59;102397.50;;;10.95;100.00
58243;BME280;50118;53.232;8.252;2023-10-08T06:48:24;102399.91;;;10.98;100.00
58243;BME280;50118;53.232;8.252;2023-10-08T06:50:52;102411.88;;;11.05;100.00
58243;BME280;50118;53.232;8.252;2023-10-08T06:53:22;102404.16;;;11.13;100.00
58243;BME280;50118;53.232;8.252;2023-10-08T06:55:48;102415.47;;;11.30;100.00
58243;BME280;50118;53.232;8.252;2023-10-08T06:58:20;102415.25;;;11.33;100.00
58243;BME280;50118;53.232;8.252;2023-10-08T07:00:45;102422.16;;;11.48;100.00
58243;BME280;50118;53.232;8.252;2023-10-08T07:03:15;102420.72;;;11.68;100.00
58243;BME280;50118;53.232;8.252;2023-10-08T07:08:21;102436.22;;;12.00;100.00
58243;BME280;50118;53.232;8.252;2023-10-08T07:10:51;102427.03;;;12.04;100.00
58243;BME280;50118;53.232;8.252;2023-10-08T07:13:18;102432.59;;;12.01;100.00
58243;BME280;50118;53.232;8.252;2023-10-08T07:15:45;102428.72;;;12.05;100.00
58243;BME280;50118;53.232;8.252;2023-10-08T07:18:12;102424.06;;;12.20;100.00
58243;BME280;50118;53.232;8.252;2023-10-08T07:20:46;102425.59;;;12.36;100.00
58243;BME280;50118;53.232;8.252;2023-10-08T07:23:18;102444.63;;;12.66;100.00
58243;BME280;50118;53.232;8.252;2023-10-08T07:25:46;102446.63;;;12.87;100.00
58243;BME280;50118;53.232;8.252;2023-10-08T07:28:18;102454.91;;;12.95;100.00
58243;BME280;50118;53.232;8.252;2023-10-08T07:30:45;102451.03;;;12.99;100.00
58243;BME280;50118;53.232;8.252;2023-10-08T07:33:10;102452.97;;;12.97;100.00
58243;BME280;50118;53.232;8.252;2023-10-08T07:35:47;102464.19;;;13.14;100.00
58243;BME280;50118;53.232;8.252;2023-10-08T07:38:39;102462.75;;;13.77;100.00
58243;BME280;50118;53.232;8.252;2023-10-08T07:41:08;102458.09;;;14.55;100.00
58243;BME280;50118;53.232;8.252;2023-10-08T07:43:34;102463.44;;;14.88;100.00
58243;BME280;50118;53.232;8.252;2023-10-08T07:46:00;102468.44;;;15.23;100.00
58243;BME280;50118;53.232;8.252;2023-10-08T07:48:26;102465.88;;;14.91;100.00
58243;BME280;50118;53.232;8.252;2023-10-08T07:50:56;102464.50;;;14.43;100.00
58243;BME280;50118;53.232;8.252;2023-10-08T07:53:25;102468.19;;;14.42;100.00
58243;BME280;50118;53.232;8.252;2023-10-08T07:56:01;102477.34;;;14.28;100.00
58243;BME280;50118;53.232;8.252;2023-10-08T07:58:35;102473.13;;;14.14;100.00
58243;BME280;50118;53.232;8.252;2023-10-08T08:01:06;102480.75;;;13.98;100.00
58243;BME280;50118;53.232;8.252;2023-10-08T08:03:41;102494.16;;;13.87;100.00
58243;BME280;50118;53.232;8.252;2023-10-08T08:06:10;102493.53;;;13.83;100.00
58243;BME280;50118;53.232;8.252;2023-10-08T08:08:36;102502.41;;;13.95;100.00
58243;BME280;50118;53.232;8.252;2023-10-08T08:11:03;102497.66;;;13.87;100.00
58243;BME280;50118;53.232;8.252;2023-10-08T08:13:32;102496.91;;;14.08;100.00
58243;BME280;50118;53.232;8.252;2023-10-08T08:15:59;102496.41;;;14.46;100.00
58243;BME280;50118;53.232;8.252;2023-10-08T08:18:36;102497.66;;;14.42;100.00
58243;BME280;50118;53.232;8.252;2023-10-08T08:21:01;102508.66;;;14.71;100.00
58243;BME280;50118;53.232;8.252;2023-10-08T08:23:29;102513.44;;;14.56;100.00
58243;BME280;50118;53.232;8.252;2023-10-08T08:25:54;102520.09;;;14.41;100.00
58243;BME280;50118;53.232;8.252;2023-10-08T08:28:37;102524.47;;;14.42;100.00
58243;BME280;50118;53.232;8.252;2023-10-08T08:31:03;102527.34;;;14.50;100.00
58243;BME280;50118;53.232;8.252;2023-10-08T08:33:31;102534.91;;;14.56;100.00
58243;BME280;50118;53.232;8.252;2023-10-08T08:36:16;102535.53;;;14.60;100.00
58243;BME280;50118;53.232;8.252;2023-10-08T08:38:42;102540.97;;;14.70;100.00
58243;BME280;50118;53.232;8.252;2023-10-08T08:41:08;102554.09;;;14.41;100.00
58243;BME280;50118;53.232;8.252;2023-10-08T08:43:38;102539.56;;;14.43;100.00
58243;BME280;50118;53.232;8.252;2023-10-08T08:46:10;102533.38;;;14.75;100.00
58243;BME280;50118;53.232;8.252;2023-10-08T08:48:40;102534.97;;;14.99;100.00
58243;BME280;50118;53.232;8.252;2023-10-08T08:51:06;102538.44;;;15.31;100.00
58243;BME280;50118;53.232;8.252;2023-10-08T08:53:33;102524.19;;;15.41;100.00
58243;BME280;50118;53.232;8.252;2023-10-08T08:56:01;102517.59;;;15.76;100.00
58243;BME280;50118;53.232;8.252;2023-10-08T08:58:33;102521.09;;;16.17;100.00
58243;BME280;50118;53.232;8.252;2023-10-08T09:01:00;102515.47;;;16.20;100.00
58243;BME280;50118;53.232;8.252;2023-10-08T09:03:26;102527.63;;;16.24;100.00
58243;BME280;50118;53.232;8.252;2023-10-08T09:05:58;102529.75;;;16.11;100.00
58243;BME280;50118;53.232;8.252;2023-10-08T09:08:32;102528.34;;;15.76;100.00
58243;BME280;50118;53.232;8.252;2023-10-08T09:10:59;102525.84;;;15.53;100.00
58243;BME280;50118;53.232;8.252;2023-10-08T09:13:31;102523.84;;;14.82;98.97
58243;BME280;50118;53.232;8.252;2023-10-08T09:16:23;102530.63;;;15.28;99.00
58243;BME280;50118;53.232;8.252;2023-10-08T09:18:48;102542.91;;;15.52;93.31
58243;BME280;50118;53.232;8.252;2023-10-08T09:21:16;102543.19;;;16.11;100.00
58243;BME280;50118;53.232;8.252;2023-10-08T09:23:49;102543.88;;;16.13;93.52
58243;BME280;50118;53.232;8.252;2023-10-08T09:26:22;102545.75;;;16.22;92.46
58243;BME280;50118;53.232;8.252;2023-10-08T09:28:48;102560.81;;;15.42;87.18
58243;BME280;50118;53.232;8.252;2023-10-08T09:31:15;102574.13;;;15.74;82.35
58243;BME280;50118;53.232;8.252;2023-10-08T09:33:43;102573.38;;;15.62;79.21
58243;BME280;50118;53.232;8.252;2023-10-08T09:36:10;102578.06;;;15.39;91.23
58243;BME280;50118;53.232;8.252;2023-10-08T09:38:41;102552.22;;;16.10;83.44
58243;BME280;50118;53.232;8.252;2023-10-08T09:41:08;102550.34;;;15.69;83.53
58243;BME280;50118;53.232;8.252;2023-10-08T09:43:34;102558.78;;;16.46;82.39
58243;BME280;50118;53.232;8.252;2023-10-08T09:46:20;102565.44;;;15.92;79.07
58243;BME280;50118;53.232;8.252;2023-10-08T09:48:51;102559.66;;;16.66;77.49
58243;BME280;50118;53.232;8.252;2023-10-08T09:51:20;102545.78;;;16.61;75.28
58243;BME280;50118;53.232;8.252;2023-10-08T09:54:10;102554.72;;;16.71;77.71
58243;BME280;50118;53.232;8.252;2023-10-08T09:56:36;102569.81;;;15.31;81.56
58243;BME280;50118;53.232;8.252;2023-10-08T09:59:02;102546.38;;;15.12;85.60
58243;BME280;50118;53.232;8.252;2023-10-08T10:01:28;102564.38;;;15.00;88.57
58243;BME280;50118;53.232;8.252;2023-10-08T10:03:57;102572.75;;;15.07;89.58
58243;BME280;50118;53.232;8.252;2023-10-08T10:06:26;102555.28;;;14.91;92.76
58243;BME280;50118;53.232;8.252;2023-10-08T10:08:55;102536.66;;;15.00;90.53
58243;BME280;50118;53.232;8.252;2023-10-08T10:11:26;102556.19;;;15.02;95.91
58243;BME280;50118;53.232;8.252;2023-10-08T10:14:00;102543.19;;;14.65;86.71
58243;BME280;50118;53.232;8.252;2023-10-08T10:16:25;102518.09;;;14.54;88.49
58243;BME280;50118;53.232;8.252;2023-10-08T10:18:59;102534.06;;;14.88;90.17
58243;BME280;50118;53.232;8.252;2023-10-08T10:21:29;102546.94;;;14.94;88.19
58243;BME280;50118;53.232;8.252;2023-10-08T10:23:56;102590.88;;;14.61;93.98
58243;BME280;50118;53.232;8.252;2023-10-08T10:31:45;102616.81;;;14.61;90.13
58243;BME280;50118;53.232;8.252;2023-10-08T10:34:17;102597.78;;;14.75;86.51
58243;BME280;50118;53.232;8.252;2023-10-08T10:36:45;102581.88;;;14.83;87.19
58243;BME280;50118;53.232;8.252;2023-10-08T10:39:16;102568.94;;;15.09;84.76
58243;BME280;50118;53.232;8.252;2023-10-08T10:41:46;102531.44;;;15.19;85.25
58243;BME280;50118;53.232;8.252;2023-10-08T10:44:16;102533.66;;;15.35;83.27
58243;BME280;50118;53.232;8.252;2023-10-08T10:46:46;102552.88;;;15.61;81.55
58243;BME280;50118;53.232;8.252;2023-10-08T10:49:37;102568.53;;;15.56;88.96
58243;BME280;50118;53.232;8.252;2023-10-08T10:52:14;102592.00;;;15.85;86.33
58243;BME280;50118;53.232;8.252;2023-10-08T10:54:44;102593.06;;;16.44;79.80
58243;BME280;50118;53.232;8.252;2023-10-08T10:57:25;102599.91;;;16.77;76.11
58243;BME280;50118;53.232;8.252;2023-10-08T10:59:52;102606.78;;;16.51;74.99
58243;BME280;50118;53.232;8.252;2023-10-08T11:02:21;102602.38;;;16.30;76.43
58243;BME280;50118;53.232;8.252;2023-10-08T11:04:56;102604.38;;;16.48;76.96
58243;BME280;50118;53.232;8.252;2023-10-08T11:07:32;102597.44;;;16.35;78.33
58243;BME280;50118;53.232;8.252;2023-10-08T11:09:59;102586.06;;;16.22;76.94
58243;BME280;50118;53.232;8.252;2023-10-08T11:12:25;102581.75;;;16.50;75.32
58243;BME280;50118;53.232;8.252;2023-10-08T11:15:09;102573.03;;;16.17;78.44
58243;BME280;50118;53.232;8.252;2023-10-08T11:17:40;102562.41;;;15.23;83.60
58243;BME280;50118;53.232;8.252;2023-10-08T11:20:25;102559.16;;;16.12;77.05
58243;BME280;50118;53.232;8.252;2023-10-08T11:22:51;102549.13;;;16.24;81.28
58243;BME280;50118;53.232;8.252;2023-10-08T11:25:23;102543.78;;;16.34;81.15
58243;BME280;50118;53.232;8.252;2023-10-08T11:27:51;102540.78;;;16.27;77.73
58243;BME280;50118;53.232;8.252;2023-10-08T11:30:24;102551.16;;;16.61;82.39
58243;BME280;50118;53.232;8.252;2023-10-08T11:32:50;102541.28;;;16.91;77.92
58243;BME280;50118;53.232;8.252;2023-10-08T11:35:15;102550.25;;;16.12;73.02
58243;BME280;50118;53.232;8.252;2023-10-08T11:37:45;102556.81;;;16.58;77.71
58243;BME280;50118;53.232;8.252;2023-10-08T11:40:26;102549.59;;;16.68;75.18
58243;BME280;50118;53.232;8.252;2023-10-08T11:42:56;102536.00;;;16.70;75.51
58243;BME280;50118;53.232;8.252;2023-10-08T11:45:28;102537.28;;;16.36;75.13
58243;BME280;50118;53.232;8.252;2023-10-08T11:48:04;102527.91;;;16.31;72.48
58243;BME280;50118;53.232;8.252;2023-10-08T11:50:37;102515.72;;;16.17;74.25
58243;BME280;50118;53.232;8.252;2023-10-08T11:53:04;102505.13;;;16.15;76.88
58243;BME280;50118;53.232;8.252;2023-10-08T11:55:35;102493.84;;;16.31;76.40
58243;BME280;50118;53.232;8.252;2023-10-08T11:58:07;102477.81;;;16.39;75.13
58243;BME280;50118;53.232;8.252;2023-10-08T12:00:39;102472.03;;;16.54;78.08
58243;BME280;50118;53.232;8.252;2023-10-08T12:03:11;102477.56;;;16.62;74.55
58243;BME280;50118;53.232;8.252;2023-10-08T12:05:38;102483.47;;;16.95;73.00
58243;BME280;50118;53.232;8.252;2023-10-08T12:08:15;102507.34;;;17.17;69.62
58243;BME280;50118;53.232;8.252;2023-10-08T12:10:42;102517.97;;;17.29;71.88
58243;BME280;50118;53.232;8.252;2023-10-08T12:13:08;102531.56;;;17.27;70.31
58243;BME280;50118;53.232;8.252;2023-10-08T12:15:36;102533.72;;;17.24;70.10
58243;BME280;50118;53.232;8.252;2023-10-08T12:18:05;102535.19;;;16.98;71.98
58243;BME280;50118;53.232;8.252;2023-10-08T12:20:35;102526.81;;;16.72;74.99
58243;BME280;50118;53.232;8.252;2023-10-08T12:23:03;102537.72;;;16.90;73.86
58243;BME280;50118;53.232;8.252;2023-10-08T12:25:32;102529.34;;;16.54;73.09
58243;BME280;50118;53.232;8.252;2023-10-08T12:27:59;102522.97;;;16.75;75.20
58243;BME280;50118;53.232;8.252;2023-10-08T12:30:29;102517.63;;;16.94;76.17
58243;BME280;50118;53.232;8.252;2023-10-08T12:33:00;102526.53;;;16.75;73.01
58243;BME280;50118;53.232;8.252;2023-10-08T12:35:26;102534.72;;;16.84;73.54
58243;BME280;50118;53.232;8.252;2023-10-08T12:37:54;102546.91;;;17.07;72.60
58243;BME280;50118;53.232;8.252;2023-10-08T12:40:21;102538.13;;;16.66;72.20
58243;BME280;50118;53.232;8.252;2023-10-08T12:42:50;102535.72;;;17.12;69.65
58243;BME280;50118;53.232;8.252;2023-10-08T12:45:16;102519.78;;;17.38;70.60
58243;BME280;50118;53.232;8.252;2023-10-08T12:47:50;102525.38;;;17.07;71.86
58243;BME280;50118;53.232;8.252;2023-10-08T12:50:17;102533.59;;;17.15;71.74
58243;BME280;50118;53.232;8.252;2023-10-08T12:52:48;102528.88;;;17.27;69.62
58243;BME280;50118;53.232;8.252;2023-10-08T12:55:20;102524.28;;;16.80;73.11
58243;BME280;50118;53.232;8.252;2023-10-08T12:57:52;102524.53;;;17.16;70.16
58243;BME280;50118;53.232;8.252;2023-10-08T13:00:22;102513.91;;;17.15;70.51
58243;BME280;50118;53.232;8.252;2023-10-08T13:02:49;102511.50;;;16.63;73.28
58243;BME280;50118;53.232;8.252;2023-10-08T13:05:21;102518.03;;;16.80;73.07
58243;BME280;50118;53.232;8.252;2023-10-08T13:07:54;102519.44;;;17.13;69.40
58243;BME280;50118;53.232;8.252;2023-10-08T13:10:24;102506.41;;;16.99;72.40
58243;BME280;50118;53.232;8.252;2023-10-08T13:12:51;102506.41;;;16.79;71.71
58243;BME280;50118;53.232;8.252;2023-10-08T13:15:17;102499.47;;;16.28;77.63